Accident Boeing 737-924ER (WL) N62883,
ASN logo
ASN Wikibase Occurrence # 350048
 
This information is added by users of ASN. Neither ASN nor the Flight Safety Foundation are responsible for the completeness or correctness of this information. If you feel this information is incomplete or incorrect, you can submit corrected information.

Date:Wednesday 10 January 2024
Time:11:06 LT
Type:Silhouette image of generic B739 model; specific model in this crash may look slightly different    
Boeing 737-924ER (WL)
Owner/operator:United Airlines
Registration: N62883
MSN: 42202/5463
Year of manufacture:2015
Fatalities:Fatalities: 0 / Occupants:
Aircraft damage: Substantial
Category:Accident
Location:Houston-George Bush Intercontinental Airport, TX (IAH/KIAH) -   United States of America
Phase: Landing
Nature:Passenger - Scheduled
Departure airport:Phoenix-Sky Harbor International Airport, AZ (PHX/KPHX)
Destination airport:Houston-George Bush Intercontinental Airport, TX (IAH/KIAH)
Investigating agency: NTSB
Confidence Rating: Information verified through data from accident investigation authorities
Narrative:
United Airlines flight UA2498, a Boeing 737-924ER, was involved in an 'Abnormal Runway Contact' accident during landing on runway 27 at IAH.

METAR:

Weather about the incident time (1610Z):
KIAH 101553Z 16009KT 10SM FEW150 SCT250 13/01 A2996 RMK AO2 SLP145 T01280011
KIAH 101653Z 18009KT 10SM FEW250 17/03 A2995 RMK AO2 SLP142 T01670028

Accident investigation:
cover
  
Investigating agency: NTSB
Report number: DCA24LA065
Status: Preliminary report
Duration:
Download report: Preliminary report

Sources:

NTSB DCA24LA065

Location

Revision history:

Date/timeContributorUpdates
20-Jan-2024 19:54 harro Added
08-Feb-2024 19:50 Captain Adam Updated [Time, Damage, Category, Accident report]

Corrections or additions? ... Edit this accident description

The Aviation Safety Network is an exclusive service provided by:
Quick Links:

CONNECT WITH US: FSF on social media FSF Facebook FSF Twitter FSF Youtube FSF LinkedIn FSF Instagram

©2024 Flight Safety Foundation

1920 Ballenger Av, 4th Fl.
Alexandria, Virginia 22314
www.FlightSafety.org